Terminal Aerodrome Forecast
Issued by NWS

Home | Current Version | Previous Version | Text Only | Print | Product List | Glossary On
Versions: 1 2 3 4 5 6 7 8 9 10 11 12 13 14 15 16 17 18 19 20 21 22 23 24 25 26 27 28
947
FTUS44 KOUN 191135
TAFHBR
TAF
KHBR 191135Z 1912/2012 17012KT 2SM BR OVC002
     FM191500 19012KT 4SM BR BKN020
     FM191800 22012KT P6SM FEW040
     FM192300 24005KT P6SM BKN250=

USA.gov is the U.S. government's official web portal to all federal, state and local government web resources and services.